Time;durP1;ratioP1;P1;durP2;ratioP2;P2;SDS_P1;SDS_P2;PMS_P1;PMS_P2;Temp;Humidity;BMP_temperature;BMP_pressure;BME280_temperature;BME280_humidity;BME280_pressure;Samples;Min_cycle;Max_cycle;Signal;HPM_P1;HPM_P2
2022/03/12 00:01:18;;;;;;;11.33;4.60;;;;;;;-4.85;92.73;100483.41;5101249;28;20477;-64
2022/03/12 00:03:45;;;;;;;6.73;3.10;;;;;;;-4.86;92.74;100475.09;5098823;28;20451;-63
2022/03/12 00:06:12;;;;;;;6.93;3.77;;;;;;;-4.87;92.77;100480.03;5099001;28;20475;-65
2022/03/12 00:08:44;;;;;;;7.27;3.20;;;;;;;-4.87;92.72;100480.03;5098347;28;20452;-64
2022/03/12 00:11:17;;;;;;;19.40;9.73;;;;;;;-5.02;93.11;100475.69;5099117;28;20869;-64
2022/03/12 00:13:46;;;;;;;19.03;9.07;;;;;;;-5.13;93.53;100475.53;5099189;28;20483;-64
2022/03/12 00:16:18;;;;;;;11.60;5.30;;;;;;;-5.18;93.49;100481.28;5099549;28;20468;-64
2022/03/12 00:18:52;;;;;;;6.30;3.73;;;;;;;-5.19;93.99;100477.94;5101190;28;20451;-64
2022/03/12 00:21:21;;;;;;;5.60;3.70;;;;;;;-5.11;94.52;100481.38;5100684;28;20506;-65
2022/03/12 00:23:50;;;;;;;6.53;3.77;;;;;;;-5.11;93.79;100476.41;5100480;28;20846;-56
2022/03/12 00:26:20;;;;;;;7.07;3.40;;;;;;;-4.91;92.86;100489.16;5099314;28;20475;-63
2022/03/12 00:28:47;;;;;;;6.10;3.20;;;;;;;-4.85;92.30;100489.22;5099320;28;20439;-57
2022/03/12 00:31:15;;;;;;;6.33;3.10;;;;;;;-4.89;92.36;100492.47;5098311;28;20473;-64
2022/03/12 00:33:42;;;;;;;5.50;2.93;;;;;;;-4.99;92.35;100485.69;5096822;28;20483;-62
2022/03/12 00:36:09;;;;;;;7.23;3.00;;;;;;;-4.98;92.87;100491.53;5094825;28;20483;-56
2022/03/12 00:38:36;;;;;;;6.90;3.20;;;;;;;-5.01;93.06;100487.34;5096891;28;20452;-64
2022/03/12 00:41:05;;;;;;;6.80;3.30;;;;;;;-4.95;92.48;100487.41;5096414;28;20483;-55
2022/03/12 00:43:33;;;;;;;6.10;3.50;;;;;;;-5.11;92.69;100485.53;5097367;28;20440;-56
2022/03/12 00:46:01;;;;;;;7.90;3.37;;;;;;;-5.02;92.91;100490.66;5094715;28;20464;-57
2022/03/12 00:48:28;;;;;;;7.47;3.60;;;;;;;-5.10;93.21;100487.22;5095084;28;20448;-64
2022/03/12 00:50:55;;;;;;;7.23;3.50;;;;;;;-5.08;93.17;100490.56;5093814;28;20479;-62
2022/03/12 00:53:22;;;;;;;8.17;4.07;;;;;;;-5.11;92.87;100485.53;5093794;28;20484;-56
2022/03/12 00:55:49;;;;;;;7.67;3.33;;;;;;;-5.07;92.84;100493.06;5095362;28;20471;-64
2022/03/12 00:58:16;;;;;;;12.77;4.47;;;;;;;-5.12;92.76;100491.31;5094812;28;20448;-63
2022/03/12 01:00:45;;;;;;;6.83;3.70;;;;;;;-5.10;93.08;100487.22;5095036;28;20472;-63
2022/03/12 01:03:12;;;;;;;15.03;4.70;;;;;;;-5.08;93.13;100493.06;5093271;28;20539;-64
2022/03/12 01:05:58;;;;;;;14.03;4.97;;;;;;;-5.09;92.76;100496.34;5093999;28;20468;-64
2022/03/12 01:08:27;;;;;;;13.57;4.73;;;;;;;-5.17;92.89;100490.44;5093597;28;20463;-64
2022/03/12 01:10:54;;;;;;;14.10;5.57;;;;;;;-5.21;92.84;100493.69;5093461;28;20487;-55
2022/03/12 01:13:21;;;;;;;10.17;4.63;;;;;;;-5.28;92.91;100488.63;5093807;28;20483;-55
2022/03/12 01:15:50;;;;;;;7.10;4.13;;;;;;;-5.33;93.52;100495.19;5094019;28;20520;-55
2022/03/12 01:18:19;;;;;;;6.70;3.70;;;;;;;-5.43;93.98;100492.56;5094877;28;20833;-64
2022/03/12 01:20:46;;;;;;;5.70;3.27;;;;;;;-5.37;93.76;100498.47;5097115;28;20464;-64
2022/03/12 01:23:15;;;;;;;6.00;3.30;;;;;;;-5.27;93.71;100495.28;5097364;28;20455;-56
2022/03/12 01:25:44;;;;;;;9.10;4.57;;;;;;;-5.22;93.22;100497.00;5095741;28;21080;-55
2022/03/12 01:28:12;;;;;;;11.57;5.90;;;;;;;-5.18;92.87;100501.22;5095835;28;20450;-56
2022/03/12 01:30:41;;;;;;;22.83;9.73;;;;;;;-5.19;92.91;100502.03;5096407;28;20537;-64
2022/03/12 01:33:09;;;;;;;19.43;7.30;;;;;;;-5.18;92.49;100498.72;5096318;28;20519;-56
2022/03/12 01:35:36;;;;;;;14.93;6.60;;;;;;;-5.16;92.21;100507.06;5096502;28;20472;-64
2022/03/12 01:38:04;;;;;;;13.87;6.17;;;;;;;-5.17;92.22;100515.38;5095472;28;20513;-64
2022/03/12 01:40:31;;;;;;;13.20;6.03;;;;;;;-5.17;92.00;100510.41;5093948;28;20480;-55
2022/03/12 01:42:58;;;;;;;17.27;5.77;;;;;;;-5.14;91.68;100516.25;5096391;28;20804;-63
2022/03/12 01:45:28;;;;;;;19.47;6.73;;;;;;;-5.13;91.35;100512.09;5094282;28;20486;-55
2022/03/12 01:47:56;;;;;;;15.07;5.80;;;;;;;-5.11;90.99;100515.47;5096137;28;20448;-56
2022/03/12 01:50:30;;;;;;;12.77;6.10;;;;;;;-5.17;91.01;100515.38;5094363;28;20997;-56
2022/03/12 01:53:01;;;;;;;13.50;5.73;;;;;;;-5.22;91.05;100516.97;5094051;28;20478;-64
2022/03/12 01:55:30;;;;;;;17.33;6.33;;;;;;;-5.24;90.89;100519.41;5095013;28;20487;-64
2022/03/12 01:58:00;;;;;;;16.57;5.33;;;;;;;-5.30;91.08;100512.69;5095607;28;20471;-64
2022/03/12 02:00:29;;;;;;;13.70;5.63;;;;;;;-5.33;90.87;100515.13;5094618;28;20463;-63
2022/03/12 02:02:56;;;;;;;9.43;4.37;;;;;;;-5.49;90.96;100514.06;5092892;28;20444;-64
2022/03/12 02:05:27;;;;;;;11.60;4.83;;;;;;;-5.55;91.05;100504.00;5094013;28;20472;-63
2022/03/12 02:07:55;;;;;;;10.23;4.30;;;;;;;-5.53;91.07;100521.47;5094442;28;20466;-60
2022/03/12 02:10:22;;;;;;;8.17;4.10;;;;;;;-5.58;90.91;100523.06;5094692;28;20848;-56
2022/03/12 02:12:49;;;;;;;7.67;4.10;;;;;;;-5.76;91.58;100519.44;5094225;28;20487;-56
2022/03/12 02:15:18;;;;;;;6.63;3.30;;;;;;;-5.76;91.89;100523.56;5094601;28;20482;-56
2022/03/12 02:17:45;;;;;;;6.97;3.93;;;;;;;-5.72;92.17;100526.16;5093145;28;20457;-64
2022/03/12 02:20:17;;;;;;;9.90;3.40;;;;;;;-5.60;91.91;100524.69;5095653;28;20467;-55
2022/03/12 02:22:51;;;;;;;5.83;3.23;;;;;;;-5.57;91.30;100530.53;5095213;28;20448;-56
2022/03/12 02:25:25;;;;;;;6.43;3.07;;;;;;;-5.69;91.71;100531.19;5094301;28;21177;-55
2022/03/12 02:27:51;;;;;;;5.03;2.90;;;;;;;-5.71;91.88;100531.97;5094378;28;20448;-64
2022/03/12 02:30:20;;;;;;;4.63;2.37;;;;;;;-5.82;92.66;100529.28;5093728;28;20483;-56
2022/03/12 02:32:48;;;;;;;5.30;2.80;;;;;;;-5.74;92.80;100527.75;5090943;28;20997;-64
2022/03/12 02:35:16;;;;;;;6.33;2.80;;;;;;;-5.84;93.28;100530.09;5092503;28;20467;-64
2022/03/12 02:37:48;;;;;;;7.10;3.50;;;;;;;-5.85;93.31;100529.22;5091169;28;20450;-55
2022/03/12 02:40:15;;;;;;;5.37;2.97;;;;;;;-5.89;93.60;100534.16;5092609;28;20476;-63
2022/03/12 02:42:44;;;;;;;5.90;3.00;;;;;;;-6.08;94.53;100535.47;5091214;28;20958;-56
2022/03/12 02:45:11;;;;;;;5.30;2.80;;;;;;;-6.19;95.12;100537.78;5091496;28;21065;-56
2022/03/12 02:47:42;;;;;;;4.43;2.63;;;;;;;-6.09;95.52;100539.63;5092962;28;20503;-56
2022/03/12 02:50:12;;;;;;;5.43;3.00;;;;;;;-5.97;95.23;100544.00;5096157;28;20475;-55
2022/03/12 02:52:42;;;;;;;5.20;2.87;;;;;;;-5.98;94.76;100547.28;5093883;28;20440;-55
2022/03/12 02:55:12;;;;;;;7.77;3.43;;;;;;;-5.94;94.22;100547.38;5093878;28;20472;-62
2022/03/12 02:57:40;;;;;;;7.23;3.43;;;;;;;-5.94;94.33;100549.03;5093010;28;20534;-64
2022/03/12 03:00:10;;;;;;;4.60;3.13;;;;;;;-6.09;94.54;100548.75;5094346;28;20491;-63
2022/03/12 03:02:40;;;;;;;6.97;3.10;;;;;;;-6.01;94.77;100547.25;5095749;28;20445;-64
2022/03/12 03:05:14;;;;;;;6.07;3.63;;;;;;;-6.03;94.76;100547.19;5093651;28;20487;-56
2022/03/12 03:07:45;;;;;;;7.57;3.80;;;;;;;-6.32;95.33;100551.63;5092464;28;20482;-55
2022/03/12 03:10:30;;;;;;;12.43;4.90;;;;;;;-6.39;96.62;100549.84;5094866;28;20559;-55
2022/03/12 03:12:58;;;;;;;10.47;5.30;;;;;;;-6.37;97.15;100558.16;5094057;28;20452;-56
2022/03/12 03:15:27;;;;;;;14.37;5.83;;;;;;;-6.32;97.72;100544.16;5094285;28;20562;-63
2022/03/12 03:17:55;;;;;;;14.10;6.00;;;;;;;-6.39;97.94;100553.16;5095615;28;20448;-55
2022/03/12 03:20:22;;;;;;;7.93;4.00;;;;;;;-6.47;98.49;100552.16;5092974;28;20483;-55
2022/03/12 03:22:49;;;;;;;7.00;3.57;;;;;;;-6.50;99.11;100561.22;5092897;28;20448;-64
2022/03/12 03:25:16;;;;;;;8.20;3.30;;;;;;;-6.44;99.70;100558.84;5095858;28;20479;-61
2022/03/12 03:27:43;;;;;;;8.77;4.77;;;;;;;-6.33;100.00;100564.88;5093429;28;21026;-55
2022/03/12 03:30:11;;;;;;;8.80;4.90;;;;;;;-6.36;99.79;100567.31;5093041;28;20464;-63
2022/03/12 03:32:39;;;;;;;8.93;4.70;;;;;;;-6.30;99.58;100567.44;5092819;28;20501;-63
2022/03/12 03:35:06;;;;;;;9.67;4.43;;;;;;;-6.23;98.97;100571.72;5094015;28;20502;-64
2022/03/12 03:37:33;;;;;;;10.60;4.70;;;;;;;-6.33;98.97;100571.53;5093388;28;20491;-61
2022/03/12 03:40:01;;;;;;;9.13;3.53;;;;;;;-6.29;99.30;100574.06;5094526;28;20484;-63
2022/03/12 03:42:28;;;;;;;11.87;3.93;;;;;;;-6.16;98.57;100573.53;5094884;28;21016;-63
2022/03/12 03:44:59;;;;;;;8.87;4.10;;;;;;;-6.29;98.22;100576.56;5094448;28;20575;-56
2022/03/12 03:47:26;;;;;;;12.97;4.07;;;;;;;-6.36;98.64;100572.28;5093145;28;20492;-63
2022/03/12 03:49:55;;;;;;;7.17;3.90;;;;;;;-6.45;98.90;100567.13;5092532;28;20480;-56
2022/03/12 03:52:22;;;;;;;7.90;3.97;;;;;;;-6.30;98.67;100574.91;5093051;28;20455;-64
2022/03/12 03:54:49;;;;;;;9.53;4.40;;;;;;;-6.47;98.35;100566.25;5094414;28;20529;-58
2022/03/12 03:57:18;;;;;;;11.87;5.00;;;;;;;-6.51;98.68;100572.00;5092676;28;20907;-55
2022/03/12 03:59:45;;;;;;;8.27;4.50;;;;;;;-6.53;98.63;100578.56;5092880;28;20470;-56
2022/03/12 04:02:13;;;;;;;12.57;4.90;;;;;;;-6.36;98.02;100579.75;5093657;28;20444;-56
2022/03/12 04:04:40;;;;;;;6.60;3.83;;;;;;;-6.35;97.47;100568.97;5096514;28;20470;-55
2022/03/12 04:07:11;;;;;;;7.53;4.07;;;;;;;-6.30;97.16;100569.91;5095542;28;20451;-63
2022/03/12 04:09:38;;;;;;;9.03;4.70;;;;;;;-6.33;97.06;100574.84;5096703;28;20486;-55
2022/03/12 04:12:06;;;;;;;9.30;4.50;;;;;;;-6.37;96.65;100575.56;5097393;28;20448;-63
2022/03/12 04:14:33;;;;;;;10.07;4.27;;;;;;;-6.39;97.11;100572.22;5096375;28;20491;-64
2022/03/12 04:17:00;;;;;;;9.77;4.67;;;;;;;-6.31;96.55;100578.22;5096015;28;20463;-63
2022/03/12 04:19:30;;;;;;;8.07;4.60;;;;;;;-6.52;96.62;100572.78;5095789;28;20464;-55
2022/03/12 04:21:58;;;;;;;9.50;4.67;;;;;;;-6.50;97.29;100576.97;5094438;28;20455;-64
2022/03/12 04:24:27;;;;;;;10.83;5.20;;;;;;;-6.45;96.76;100579.56;5093476;28;20508;-63
2022/03/12 04:26:54;;;;;;;11.77;5.40;;;;;;;-6.57;96.63;100581.78;5094603;28;20552;-63
2022/03/12 04:29:21;;;;;;;8.47;4.60;;;;;;;-6.46;96.90;100582.84;5093688;28;20994;-62
2022/03/12 04:31:49;;;;;;;10.97;5.03;;;;;;;-6.30;96.26;100594.81;5095053;28;20537;-56
2022/03/12 04:34:16;;;;;;;11.07;5.17;;;;;;;-6.30;95.15;100589.84;5094261;28;20843;-62
2022/03/12 04:36:44;;;;;;;7.53;4.07;;;;;;;-6.15;94.63;100595.09;5094034;28;20471;-63
2022/03/12 04:39:12;;;;;;;10.23;4.93;;;;;;;-6.07;94.04;100596.94;5094357;28;20474;-59
2022/03/12 04:41:41;;;;;;;7.57;4.73;;;;;;;-6.10;93.63;100596.88;5093845;28;20463;-55
2022/03/12 04:44:09;;;;;;;10.33;5.00;;;;;;;-6.09;93.63;100603.50;5093305;28;20463;-63
2022/03/12 04:46:36;;;;;;;9.63;4.47;;;;;;;-6.18;93.82;100602.50;5094399;28;20476;-62
2022/03/12 04:49:04;;;;;;;11.13;4.80;;;;;;;-6.13;94.50;100606.75;5093671;28;20455;-64
2022/03/12 04:51:31;;;;;;;7.20;4.23;;;;;;;-6.10;94.21;100607.66;5093907;28;20468;-64
2022/03/12 04:54:01;;;;;;;8.77;4.77;;;;;;;-5.94;93.48;100611.28;5093284;28;20529;-63
2022/03/12 04:56:28;;;;;;;14.07;5.00;;;;;;;-5.92;92.74;100612.13;5094642;28;20460;-64
2022/03/12 04:58:58;;;;;;;12.37;4.07;;;;;;;-5.89;92.82;100617.16;5094244;28;20451;-55
2022/03/12 05:01:25;;;;;;;11.53;4.83;;;;;;;-5.82;92.19;100615.63;5093571;28;20535;-63
2022/03/12 05:03:52;;;;;;;12.83;4.77;;;;;;;-5.82;92.32;100618.94;5094810;28;20466;-55
2022/03/12 05:06:21;;;;;;;7.07;4.23;;;;;;;-5.80;92.28;100623.97;5096209;28;20483;-63
2022/03/12 05:08:48;;;;;;;12.07;5.30;;;;;;;-5.88;92.22;100618.81;5095618;28;20949;-64
2022/03/12 05:11:15;;;;;;;2.43;1.60;;;;;;;-5.87;92.68;100620.53;5095528;28;20471;-63
2022/03/12 05:13:42;;;;;;;9.50;4.87;;;;;;;-5.87;92.63;100619.69;5097119;28;20488;-55
2022/03/12 05:16:11;;;;;;;8.73;4.37;;;;;;;-5.93;93.08;100630.41;5095364;28;20484;-63
2022/03/12 05:18:40;;;;;;;13.87;6.43;;;;;;;-6.08;93.68;100625.09;5096935;28;20517;-56
2022/03/12 05:21:07;;;;;;;12.17;6.33;;;;;;;-6.03;93.88;100631.84;5095136;28;20830;-63
2022/03/12 05:23:34;;;;;;;12.10;5.70;;;;;;;-6.04;94.23;100636.81;5093789;28;20448;-63
2022/03/12 05:26:01;;;;;;;11.60;5.30;;;;;;;-5.91;94.15;100633.72;5095932;28;20475;-56
2022/03/12 05:28:32;;;;;;;12.63;6.20;;;;;;;-5.94;94.00;100638.66;5094485;28;20451;-63
2022/03/12 05:31:04;;;;;;;8.90;4.83;;;;;;;-5.98;94.38;100631.97;5094399;28;20491;-63
2022/03/12 05:33:34;;;;;;;9.67;4.60;;;;;;;-5.93;94.20;100636.19;5095539;28;20861;-55
2022/03/12 05:36:01;;;;;;;6.93;3.73;;;;;;;-5.95;93.97;100637.00;5094894;28;20489;-64
2022/03/12 05:38:31;;;;;;;6.73;3.80;;;;;;;-5.83;93.87;100642.16;5097032;28;20582;-64
2022/03/12 05:40:59;;;;;;;7.87;4.37;;;;;;;-5.66;93.65;100645.00;5095046;28;20480;-64
2022/03/12 05:43:33;;;;;;;9.23;4.50;;;;;;;-5.56;93.22;100650.97;5094871;28;20854;-55
2022/03/12 05:46:01;;;;;;;8.97;4.30;;;;;;;-5.46;92.26;100658.66;5093473;28;20482;-56
2022/03/12 05:48:28;;;;;;;10.93;4.70;;;;;;;-5.45;92.00;100649.50;5093328;28;20456;-64
2022/03/12 05:50:58;;;;;;;8.83;4.23;;;;;;;-5.32;91.77;100651.44;5092925;28;20483;-56
2022/03/12 05:53:25;;;;;;;9.10;4.77;;;;;;;-5.26;91.67;100646.53;5093693;28;20458;-55
2022/03/12 05:55:53;;;;;;;8.87;4.63;;;;;;;-5.13;91.65;100646.75;5093553;28;20495;-56
2022/03/12 05:58:22;;;;;;;7.83;4.40;;;;;;;-4.99;91.25;100645.31;5093435;28;20440;-64
2022/03/12 06:00:54;;;;;;;10.17;4.80;;;;;;;-4.88;90.43;100653.81;5093885;28;20480;-64
2022/03/12 06:03:21;;;;;;;9.47;4.80;;;;;;;-4.75;90.15;100646.50;5095088;28;20476;-55
2022/03/12 06:05:56;;;;;;;11.03;4.47;;;;;;;-4.69;89.62;100654.09;5096147;28;20468;-56
2022/03/12 06:08:24;;;;;;;10.10;4.60;;;;;;;-4.47;89.29;100656.09;5093996;28;20445;-64
2022/03/12 06:10:54;;;;;;;10.07;4.87;;;;;;;-4.16;89.05;100667.34;5095655;28;20483;-63
2022/03/12 06:13:23;;;;;;;8.13;4.33;;;;;;;-3.77;88.12;100675.28;5096867;28;21031;-55
2022/03/12 06:15:55;;;;;;;11.30;4.53;;;;;;;-3.27;86.88;100674.97;5094673;28;20492;-55
2022/03/12 06:18:23;;;;;;;10.30;4.83;;;;;;;-2.83;84.78;100669.53;5096805;28;20440;-56
2022/03/12 06:20:50;;;;;;;9.07;4.63;;;;;;;-2.38;83.00;100668.19;5094205;28;20471;-63
2022/03/12 06:23:17;;;;;;;9.57;4.80;;;;;;;-2.12;81.40;100674.16;5094256;28;20452;-64
2022/03/12 06:25:45;;;;;;;8.80;4.53;;;;;;;-1.75;80.52;100670.97;5094197;28;20992;-56
2022/03/12 06:28:12;;;;;;;8.83;4.70;;;;;;;-1.28;79.70;100683.66;5093208;28;20444;-56
2022/03/12 06:30:41;;;;;;;8.43;4.60;;;;;;;-0.95;78.25;100692.06;5094460;28;20479;-64
2022/03/12 06:33:09;;;;;;;9.03;4.97;;;;;;;-0.82;76.34;100683.66;5093735;28;20471;-64
2022/03/12 06:35:36;;;;;;;11.53;4.80;;;;;;;-0.63;74.51;100683.69;5092507;28;20491;-62
2022/03/12 06:38:03;;;;;;;10.33;4.90;;;;;;;-0.48;74.26;100684.50;5094461;28;20448;-55
2022/03/12 06:40:30;;;;;;;8.10;5.00;;;;;;;-0.46;72.92;100682.00;5095841;28;20471;-64
2022/03/12 06:42:59;;;;;;;8.47;4.57;;;;;;;-0.54;73.06;100681.16;5096698;28;20965;-56
2022/03/12 06:45:28;;;;;;;10.33;5.30;;;;;;;-0.12;73.87;100686.94;5095157;28;20476;-56
2022/03/12 06:47:56;;;;;;;8.37;4.63;;;;;;;0.01;74.60;100697.81;5094267;28;20455;-57
2022/03/12 06:50:24;;;;;;;8.00;4.90;;;;;;;0.36;71.62;100700.19;5095860;28;20463;-61
2022/03/12 06:52:53;;;;;;;9.90;4.73;;;;;;;0.53;69.05;100695.91;5094131;28;20455;-64
2022/03/12 06:55:22;;;;;;;9.80;5.20;;;;;;;0.12;68.08;100696.09;5093460;28;20506;-65
2022/03/12 06:57:53;;;;;;;10.00;5.00;;;;;;;-0.49;71.53;100692.06;5093191;28;20439;-64
2022/03/12 07:00:24;;;;;;;8.37;4.87;;;;;;;-0.80;70.95;100702.09;5094555;28;20513;-57
2022/03/12 07:02:51;;;;;;;10.10;5.47;;;;;;;-0.78;74.53;100700.44;5093952;28;20464;-65
2022/03/12 07:05:18;;;;;;;10.53;5.20;;;;;;;-0.58;73.84;100692.03;5094458;28;20475;-65
2022/03/12 07:07:45;;;;;;;8.87;5.00;;;;;;;-1.10;73.79;100700.41;5093628;28;20452;-57
2022/03/12 07:10:12;;;;;;;8.87;5.33;;;;;;;-1.35;73.82;100691.16;5093118;28;20476;-57
2022/03/12 07:12:40;;;;;;;11.10;5.00;;;;;;;-1.37;75.75;100698.66;5093125;28;20474;-65
2022/03/12 07:15:07;;;;;;;7.93;4.73;;;;;;;-0.93;73.55;100690.41;5093319;28;20526;-56
2022/03/12 07:17:35;;;;;;;13.00;6.03;;;;;;;-0.18;72.02;100697.00;5094121;28;20459;-65
2022/03/12 07:20:03;;;;;;;9.20;5.03;;;;;;;0.25;70.28;100699.38;5094588;28;20574;-65
2022/03/12 07:22:30;;;;;;;11.33;6.33;;;;;;;0.45;68.84;100702.66;5094703;28;20914;-64
2022/03/12 07:24:57;;;;;;;9.50;5.73;;;;;;;-0.11;68.28;100698.69;5095002;28;20225;-65
2022/03/12 07:27:25;;;;;;;11.73;5.37;;;;;;;-0.01;70.83;100697.78;5094829;28;20459;-57
2022/03/12 07:29:52;;;;;;;9.90;5.47;;;;;;;0.13;71.51;100700.28;5094792;28;20492;-64
2022/03/12 07:32:20;;;;;;;8.73;5.10;;;;;;;0.89;69.91;100704.06;5096475;28;20206;-57
2022/03/12 07:34:49;;;;;;;10.83;5.80;;;;;;;1.64;66.80;100703.47;5094016;28;20491;-65
2022/03/12 07:37:16;;;;;;;14.20;6.10;;;;;;;2.07;64.05;100709.78;5096546;28;20202;-65
2022/03/12 07:39:44;;;;;;;8.87;5.03;;;;;;;2.21;61.63;100706.22;5100675;28;20296;-56
2022/03/12 07:42:11;;;;;;;9.83;4.93;;;;;;;2.35;60.10;100712.78;5096754;28;20232;-56
2022/03/12 07:44:39;;;;;;;10.27;5.23;;;;;;;2.00;57.86;100717.38;5098223;28;20205;-65
2022/03/12 07:47:07;;;;;;;9.13;5.20;;;;;;;1.32;61.96;100716.34;5096638;28;20197;-56
2022/03/12 07:49:35;;;;;;;9.37;4.90;;;;;;;1.71;63.24;100714.31;5097016;28;20214;-56
2022/03/12 07:52:05;;;;;;;10.97;5.47;;;;;;;2.35;62.76;100723.72;5097071;28;20251;-57
2022/03/12 07:54:33;;;;;;;35.53;15.37;;;;;;;2.37;60.36;100719.47;5096753;28;20291;-56
2022/03/12 07:57:01;;;;;;;8.83;5.17;;;;;;;2.15;60.17;100716.41;5095780;28;20230;-64
2022/03/12 07:59:29;;;;;;;14.63;7.67;;;;;;;1.83;58.84;100719.25;5095640;28;20209;-56
2022/03/12 08:01:56;;;;;;;8.60;5.20;;;;;;;1.39;59.59;100720.50;5095131;28;20198;-56
2022/03/12 08:04:23;;;;;;;9.70;5.03;;;;;;;1.30;61.13;100728.94;5096924;28;20257;-65
2022/03/12 08:06:50;;;;;;;10.47;4.93;;;;;;;1.52;59.57;100723.75;5098360;28;20256;-56
2022/03/12 08:09:19;;;;;;;10.50;4.97;;;;;;;1.19;65.04;100732.41;5096208;28;20269;-65
2022/03/12 08:11:47;;;;;;;10.10;5.60;;;;;;;1.86;63.72;100729.28;5095533;28;20236;-59
2022/03/12 08:14:15;;;;;;;11.70;4.93;;;;;;;2.68;59.06;100736.78;5095783;28;20306;-65
2022/03/12 08:16:44;;;;;;;9.20;5.10;;;;;;;3.06;59.77;100725.28;5095965;28;20304;-65
2022/03/12 08:19:11;;;;;;;9.17;5.43;;;;;;;3.06;60.09;100727.81;5095878;28;20260;-56
2022/03/12 08:21:39;;;;;;;11.90;5.50;;;;;;;3.47;58.30;100728.88;5095841;28;20218;-65
2022/03/12 08:24:09;;;;;;;9.63;4.90;;;;;;;3.90;58.06;100728.09;5095692;28;20210;-56
2022/03/12 08:26:41;;;;;;;11.80;5.47;;;;;;;3.90;55.32;100738.22;5096254;28;20597;-64
2022/03/12 08:29:09;;;;;;;12.37;5.80;;;;;;;2.88;57.92;100734.81;5095295;28;20259;-56
2022/03/12 08:31:36;;;;;;;13.57;6.40;;;;;;;3.33;61.05;100731.59;5097540;28;20212;-64
2022/03/12 08:34:04;;;;;;;11.37;5.93;;;;;;;3.78;58.95;100724.09;5096496;28;20204;-56
2022/03/12 08:36:31;;;;;;;14.87;6.10;;;;;;;3.95;58.73;100726.31;5095956;28;20276;-65
2022/03/12 08:38:58;;;;;;;10.53;6.20;;;;;;;4.70;56.31;100732.41;5094753;28;20687;-66
2022/03/12 08:41:25;;;;;;;8.10;4.97;;;;;;;4.61;52.31;100733.44;5095224;28;20217;-57
2022/03/12 08:43:53;;;;;;;9.53;5.07;;;;;;;4.81;53.21;100730.47;5095292;28;20259;-56
2022/03/12 08:46:20;;;;;;;9.70;5.27;;;;;;;4.70;56.04;100733.22;5095077;28;20222;-56
2022/03/12 08:48:47;;;;;;;9.83;5.20;;;;;;;4.99;54.00;100735.13;5094637;28;20635;-65
2022/03/12 08:51:14;;;;;;;9.23;5.20;;;;;;;5.34;54.25;100732.63;5095458;28;20229;-65
2022/03/12 08:53:41;;;;;;;8.80;5.13;;;;;;;5.49;52.06;100739.84;5096284;28;20206;-65
2022/03/12 08:56:08;;;;;;;8.10;4.97;;;;;;;5.90;52.04;100735.44;5094734;28;20256;-57
2022/03/12 08:58:36;;;;;;;8.83;5.03;;;;;;;6.01;48.60;100728.41;5096290;28;20170;-57
2022/03/12 09:01:08;;;;;;;12.17;5.13;;;;;;;6.19;49.51;100732.13;5095256;28;20217;-65
2022/03/12 09:03:35;;;;;;;10.33;4.90;;;;;;;5.96;48.58;100735.28;5096489;28;20241;-56
2022/03/12 09:06:02;;;;;;;8.73;5.47;;;;;;;5.24;49.12;100738.81;5098870;28;20225;-64
2022/03/12 09:08:29;;;;;;;8.00;4.90;;;;;;;5.05;49.58;100739.22;5096218;28;20698;-64
2022/03/12 09:10:57;;;;;;;9.87;5.10;;;;;;;5.37;49.08;100735.09;5096238;28;20228;-65
2022/03/12 09:13:24;;;;;;;10.57;5.93;;;;;;;5.25;50.97;100731.16;5096843;28;20228;-63
2022/03/12 09:15:51;;;;;;;9.40;5.33;;;;;;;5.17;51.88;100723.72;5095850;28;20340;-64
2022/03/12 09:18:20;;;;;;;9.73;6.07;;;;;;;5.31;53.14;100725.09;5097573;28;20206;-57
2022/03/12 09:20:48;;;;;;;11.43;5.83;;;;;;;4.46;56.72;100718.56;5097121;28;20630;-65
2022/03/12 09:23:15;;;;;;;9.43;5.20;;;;;;;4.48;53.72;100722.75;5096473;28;20671;-56
2022/03/12 09:25:42;;;;;;;11.23;5.40;;;;;;;4.50;55.38;100715.09;5094893;28;20221;-56
2022/03/12 09:28:10;;;;;;;9.10;5.77;;;;;;;5.06;55.25;100725.69;5095124;28;20220;-65
2022/03/12 09:30:37;;;;;;;9.53;5.30;;;;;;;4.98;53.70;100727.56;5096035;28;20223;-56
2022/03/12 09:33:04;;;;;;;10.63;5.03;;;;;;;4.36;53.57;100717.91;5097361;28;20198;-65
2022/03/12 09:35:33;;;;;;;8.43;5.10;;;;;;;4.65;55.24;100719.81;5096964;28;20240;-65
2022/03/12 09:38:01;;;;;;;8.47;4.77;;;;;;;4.82;51.71;100718.63;5095626;28;20218;-56
2022/03/12 09:40:29;;;;;;;9.10;4.80;;;;;;;4.45;53.35;100714.34;5096071;28;20230;-56
2022/03/12 09:42:56;;;;;;;7.97;4.53;;;;;;;4.71;52.63;100718.84;5095232;28;20225;-56
2022/03/12 09:45:24;;;;;;;9.00;4.93;;;;;;;5.26;52.65;100709.16;5095859;28;20222;-65
2022/03/12 09:47:52;;;;;;;8.43;5.10;;;;;;;5.32;54.19;100711.53;5096382;28;20197;-56
2022/03/12 09:50:20;;;;;;;9.53;5.13;;;;;;;5.22;51.76;100716.84;5094249;28;20226;-66
2022/03/12 09:52:49;;;;;;;9.90;4.73;;;;;;;4.78;51.53;100719.59;5096103;28;20205;-65
2022/03/12 09:55:18;;;;;;;9.17;4.77;;;;;;;4.83;52.42;100717.75;5095035;28;20249;-65
2022/03/12 09:57:45;;;;;;;10.43;5.70;;;;;;;5.32;55.49;100722.50;5094664;28;20224;-57
2022/03/12 10:00:13;;;;;;;8.90;5.20;;;;;;;5.57;51.02;100722.75;5094373;28;20249;-65
2022/03/12 10:02:40;;;;;;;10.20;5.17;;;;;;;5.05;50.22;100718.94;5095158;28;20213;-57
2022/03/12 10:05:12;;;;;;;9.63;5.70;;;;;;;4.83;52.40;100722.81;5095797;28;20312;-64
2022/03/12 10:07:41;;;;;;;13.83;5.90;;;;;;;4.85;52.08;100721.91;5095476;28;20678;-65
2022/03/12 10:10:15;;;;;;;11.03;6.07;;;;;;;5.28;52.58;100717.56;5093907;28;20218;-56
2022/03/12 10:12:44;;;;;;;10.80;5.87;;;;;;;5.52;52.77;100719.50;5096420;28;20266;-65
2022/03/12 10:15:14;;;;;;;10.87;6.13;;;;;;;5.18;51.12;100704.28;5097055;28;20226;-56
2022/03/12 10:17:42;;;;;;;10.67;6.17;;;;;;;5.27;51.73;100709.13;5095806;28;20735;-66
2022/03/12 10:20:11;;;;;;;10.20;5.90;;;;;;;4.98;51.69;100702.22;5094050;28;20221;-57
2022/03/12 10:22:38;;;;;;;10.50;6.13;;;;;;;5.29;51.31;100702.28;5093839;28;20679;-57
2022/03/12 10:25:06;;;;;;;9.30;5.00;;;;;;;4.94;48.75;100690.47;5095728;28;20615;-63
2022/03/12 10:27:36;;;;;;;10.20;5.30;;;;;;;5.31;50.61;100692.97;5094993;28;20220;-56
2022/03/12 10:30:04;;;;;;;10.90;7.07;;;;;;;5.63;54.80;100697.22;5094588;28;20229;-65
2022/03/12 10:32:41;;;;;;;10.53;5.97;;;;;;;5.70;51.41;100702.97;5095548;28;20678;-65
2022/03/12 10:35:10;;;;;;;7.43;4.37;;;;;;;5.33;47.76;100698.00;5095536;28;20300;-65
2022/03/12 10:37:37;;;;;;;12.00;5.77;;;;;;;5.81;52.53;100690.00;5094487;28;20293;-56
2022/03/12 10:40:08;;;;;;;8.37;5.27;;;;;;;6.39;48.83;100693.47;5095246;28;20229;-56
2022/03/12 10:42:39;;;;;;;11.30;5.67;;;;;;;6.21;49.86;100683.84;5093668;28;20686;-66
2022/03/12 10:45:11;;;;;;;11.27;6.43;;;;;;;5.62;51.04;100679.50;5093900;28;20738;-65
2022/03/12 10:47:43;;;;;;;8.87;5.37;;;;;;;4.60;51.48;100686.19;5094438;28;20494;-65
2022/03/12 10:50:15;;;;;;;9.23;6.27;;;;;;;4.08;53.35;100684.75;5094453;28;20316;-64
2022/03/12 10:52:46;;;;;;;8.77;5.50;;;;;;;3.69;50.63;100674.50;5093801;28;20748;-56
2022/03/12 10:55:16;;;;;;;10.23;6.00;;;;;;;4.03;54.38;100681.44;5093733;28;20734;-65
2022/03/12 10:57:58;;;;;;;10.63;5.73;;;;;;;4.71;50.89;100663.97;5092960;28;20796;-56
2022/03/12 11:00:26;;;;;;;9.00;4.57;;;;;;;5.08;49.88;100675.78;5095547;28;20228;-65
2022/03/12 11:02:54;;;;;;;8.93;6.07;;;;;;;4.90;51.14;100664.38;5095025;28;20212;-56
2022/03/12 11:05:26;;;;;;;8.97;5.33;;;;;;;5.36;52.58;100667.50;5094602;28;20251;-65
2022/03/12 11:07:53;;;;;;;9.73;5.80;;;;;;;5.33;49.58;100657.44;5093909;28;20667;-56
2022/03/12 11:10:27;;;;;;;8.17;5.07;;;;;;;5.52;49.63;100661.13;5093654;28;20688;-64
2022/03/12 11:12:55;;;;;;;8.73;5.70;;;;;;;5.18;49.15;100658.66;5093647;28;20202;-64
2022/03/12 11:15:25;;;;;;;9.53;5.60;;;;;;;5.75;53.18;100652.09;5094794;28;20257;-64
2022/03/12 11:17:52;;;;;;;10.07;5.90;;;;;;;6.30;49.80;100648.03;5094177;28;20701;-56
2022/03/12 11:20:30;;;;;;;7.43;4.60;;;;;;;6.05;47.72;100658.91;5094601;28;20218;-65
2022/03/12 11:23:07;;;;;;;9.07;5.30;;;;;;;5.22;48.37;100650.91;5093574;28;20276;-57
2022/03/12 11:25:36;;;;;;;9.20;5.27;;;;;;;5.06;47.82;100659.78;5092488;28;20221;-65
2022/03/12 11:28:18;;;;;;;9.67;5.57;;;;;;;4.18;49.17;100653.28;5094501;28;20232;-57
2022/03/12 11:30:47;;;;;;;11.30;5.43;;;;;;;3.72;51.33;100644.09;5093386;28;20710;-62